Time;durP1;ratioP1;P1;durP2;ratioP2;P2;SDS_P1;SDS_P2;PMS_P1;PMS_P2;Temp;Humidity;BMP_temperature;BMP_pressure;BME280_temperature;BME280_humidity;BME280_pressure;Samples;Min_cycle;Max_cycle;Signal;HPM_P1;HPM_P2
2023/02/09 00:01:30;;;;;;;10.30;7.80;;;1.20;99.90;;;;;;4938200;28;92518;-75
2023/02/09 00:03:58;;;;;;;11.93;7.78;;;1.10;99.90;;;;;;4938911;28;93645;-75
2023/02/09 00:06:28;;;;;;;10.05;7.60;;;1.10;99.90;;;;;;4939561;28;91905;-75
2023/02/09 00:08:57;;;;;;;11.85;8.10;;;1.10;99.90;;;;;;4937773;28;92589;-75
2023/02/09 00:14:14;;;;;;;11.98;8.02;;;1.10;99.90;;;;;;4936487;28;98290;-75
2023/02/09 00:16:41;;;;;;;11.23;7.93;;;1.00;99.90;;;;;;4937370;28;95365;-75
2023/02/09 00:19:09;;;;;;;10.23;7.55;;;1.00;99.90;;;;;;4939268;28;93108;-75
2023/02/09 00:21:37;;;;;;;9.38;7.35;;;1.00;99.90;;;;;;4937675;28;93157;-75
2023/02/09 00:24:05;;;;;;;12.00;7.80;;;1.00;99.90;;;;;;4921762;28;93270;-75
2023/02/09 00:26:33;;;;;;;14.32;8.05;;;1.00;99.90;;;;;;4921608;28;95710;-75
2023/02/09 00:29:00;;;;;;;10.10;7.40;;;1.00;99.90;;;;;;4937293;28;92466;-75
2023/02/09 00:31:27;;;;;;;10.93;8.18;;;0.90;99.90;;;;;;4938180;28;92059;-75
2023/02/09 00:33:54;;;;;;;12.18;7.72;;;0.90;99.90;;;;;;4937474;28;93190;-75
2023/02/09 00:36:21;;;;;;;11.20;8.00;;;0.90;99.90;;;;;;4937424;28;95667;-75
2023/02/09 00:38:49;;;;;;;9.85;7.15;;;0.90;99.90;;;;;;4937718;28;94816;-75
2023/02/09 00:41:16;;;;;;;12.32;7.72;;;0.80;99.90;;;;;;4939156;28;92833;-75
2023/02/09 00:43:44;;;;;;;12.07;7.80;;;0.80;99.90;;;;;;4937051;28;95314;-75
2023/02/09 00:46:13;;;;;;;12.93;7.10;;;0.80;99.90;;;;;;4937406;28;92991;-75
2023/02/09 00:48:40;;;;;;;8.90;6.75;;;0.80;99.90;;;;;;4937294;28;92406;-75
2023/02/09 00:51:07;;;;;;;9.48;7.15;;;0.80;99.90;;;;;;4936533;28;92562;-75
2023/02/09 00:53:34;;;;;;;11.18;7.22;;;0.80;99.90;;;;;;4936957;28;95940;-75
2023/02/09 00:56:01;;;;;;;8.63;6.82;;;0.80;99.90;;;;;;4937299;28;96792;-75
2023/02/09 00:58:28;;;;;;;8.65;6.55;;;0.80;99.90;;;;;;4938801;28;92368;-74
2023/02/09 01:00:55;;;;;;;9.25;6.75;;;0.80;99.90;;;;;;4920881;28;92489;-74
2023/02/09 01:03:22;;;;;;;9.63;7.03;;;0.80;99.90;;;;;;4919471;28;97348;-75
2023/02/09 01:05:49;;;;;;;13.20;7.03;;;0.80;99.90;;;;;;4920584;28;97899;-74
2023/02/09 01:08:16;;;;;;;8.48;6.97;;;0.80;99.90;;;;;;4938425;28;92427;-75
2023/02/09 01:10:45;;;;;;;13.07;6.63;;;0.80;99.90;;;;;;4936602;28;92588;-75
2023/02/09 01:13:12;;;;;;;7.13;4.57;;;0.80;99.90;;;;;;4937058;28;93185;-75
2023/02/09 01:15:39;;;;;;;10.10;6.20;;;0.80;99.90;;;;;;4936909;28;93101;-75
2023/02/09 01:18:06;;;;;;;11.05;6.70;;;0.80;99.90;;;;;;4936868;28;92614;-75
2023/02/09 01:20:34;;;;;;;8.38;6.40;;;0.90;99.90;;;;;;4938638;28;92097;-75
2023/02/09 01:23:01;;;;;;;10.50;6.47;;;0.90;99.90;;;;;;4936639;28;93300;-75
2023/02/09 01:25:29;;;;;;;8.88;6.13;;;0.90;99.90;;;;;;4920675;28;95719;-75
2023/02/09 01:27:56;;;;;;;8.35;5.68;;;1.00;99.90;;;;;;4935747;28;95255;-75
2023/02/09 01:30:23;;;;;;;8.88;6.45;;;1.00;99.90;;;;;;4936674;28;92579;-75
2023/02/09 01:32:51;;;;;;;13.15;6.20;;;1.00;99.90;;;;;;4937554;28;93515;-75
2023/02/09 01:35:18;;;;;;;11.57;7.00;;;1.00;99.90;;;;;;4920655;28;96070;-75
2023/02/09 01:37:45;;;;;;;9.50;6.45;;;1.00;99.90;;;;;;4936600;28;92590;-75
2023/02/09 01:40:13;;;;;;;12.50;6.85;;;1.00;99.90;;;;;;4936608;28;92645;-75
2023/02/09 01:42:40;;;;;;;9.63;6.50;;;1.00;99.90;;;;;;4920417;28;95960;-75
2023/02/09 01:45:19;;;;;;;9.10;6.13;;;1.00;99.90;;;;;;4920377;28;95858;-75
2023/02/09 01:47:55;;;;;;;7.75;5.75;;;1.00;99.90;;;;;;4938231;28;92563;-75
2023/02/09 01:50:25;;;;;;;8.75;6.20;;;1.00;99.90;;;;;;4936691;28;92598;-75
2023/02/09 01:52:52;;;;;;;11.32;6.70;;;0.90;99.90;;;;;;4934847;28;95607;-75
2023/02/09 01:55:24;;;;;;;8.75;6.30;;;0.90;99.90;;;;;;4935892;28;97724;-75
2023/02/09 01:57:57;;;;;;;8.93;5.95;;;0.90;99.90;;;;;;4937952;28;92443;-75
2023/02/09 02:00:25;;;;;;;12.20;6.50;;;0.90;99.90;;;;;;4936203;28;92446;-75
2023/02/09 02:02:57;;;;;;;10.02;6.38;;;0.90;99.90;;;;;;4919353;28;95489;-75
2023/02/09 02:05:26;;;;;;;9.80;5.90;;;0.90;99.90;;;;;;4935182;28;95776;-75
2023/02/09 02:08:15;;;;;;;9.02;5.65;;;0.90;99.90;;;;;;4935670;28;93193;-75
2023/02/09 02:10:43;;;;;;;6.97;5.30;;;0.90;99.90;;;;;;4936732;28;91738;-75
2023/02/09 02:13:10;;;;;;;10.80;5.88;;;0.90;99.90;;;;;;4935818;28;95772;-75
2023/02/09 02:15:58;;;;;;;11.52;6.53;;;0.90;99.90;;;;;;4936084;28;92972;-74
2023/02/09 02:18:47;;;;;;;8.90;6.43;;;0.90;99.90;;;;;;4934980;28;94932;-75
2023/02/09 02:21:34;;;;;;;9.93;6.07;;;0.90;99.90;;;;;;4937557;28;92498;-75
2023/02/09 02:24:23;;;;;;;8.60;5.53;;;0.90;99.90;;;;;;4935564;28;96312;-74
2023/02/09 02:27:14;;;;;;;9.65;6.55;;;0.90;99.90;;;;;;4935656;28;94645;-74
2023/02/09 02:30:06;;;;;;;9.45;5.85;;;0.90;99.90;;;;;;4919860;28;92508;-75
2023/02/09 02:33:12;;;;;;;7.43;5.82;;;0.90;99.90;;;;;;4936043;28;92417;-74
2023/02/09 02:35:50;;;;;;;12.35;6.32;;;0.90;99.90;;;;;;4877670;28;96247;-75
2023/02/09 02:38:40;;;;;;;10.23;5.40;;;0.90;99.90;;;;;;4935938;28;93166;-75
2023/02/09 02:41:16;;;;;;;8.35;5.93;;;0.90;99.90;;;;;;4926233;28;94278;-75
2023/02/09 02:44:01;;;;;;;12.85;6.10;;;0.90;99.90;;;;;;4919715;28;92474;-75
2023/02/09 02:46:42;;;;;;;8.52;5.65;;;0.90;99.90;;;;;;4935706;28;94771;-75
2023/02/09 02:49:16;;;;;;;9.65;6.45;;;0.90;99.90;;;;;;4919252;28;97007;-74
2023/02/09 02:51:45;;;;;;;10.48;5.82;;;0.90;99.90;;;;;;4935568;28;92596;-75
2023/02/09 02:54:20;;;;;;;12.27;6.30;;;0.90;99.90;;;;;;4919273;28;92930;-75
2023/02/09 02:57:12;;;;;;;9.35;5.75;;;0.90;99.90;;;;;;4935461;28;95045;-75
2023/02/09 02:59:53;;;;;;;10.18;6.05;;;1.00;99.90;;;;;;4936838;28;92482;-75
2023/02/09 03:02:24;;;;;;;12.70;6.35;;;1.00;99.90;;;;;;4919344;28;92464;-75
2023/02/09 03:04:54;;;;;;;10.77;6.30;;;1.00;99.90;;;;;;4936616;28;92147;-75
2023/02/09 03:07:22;;;;;;;8.82;5.47;;;1.00;99.90;;;;;;4934861;28;96354;-75
2023/02/09 03:09:56;;;;;;;10.93;6.43;;;1.00;99.90;;;;;;4935312;28;92529;-75
2023/02/09 03:12:22;;;;;;;;;;;1.00;99.90;;;;;;4937482;28;94878;-75
2023/02/09 03:15:28;;;;;;;11.40;6.10;;;1.00;99.90;;;;;;4959261;28;93123;-75
2023/02/09 03:18:03;;;;;;;11.70;6.45;;;1.00;99.90;;;;;;4935169;28;93296;-75
2023/02/09 03:20:47;;;;;;;11.82;6.30;;;1.00;99.90;;;;;;4925328;28;95510;-75
2023/02/09 03:23:25;;;;;;;9.48;5.82;;;1.00;99.90;;;;;;4943108;28;92416;-75
2023/02/09 03:25:54;;;;;;;8.55;5.70;;;1.00;99.90;;;;;;4941593;28;92489;-75
2023/02/09 03:28:27;;;;;;;13.73;6.93;;;1.00;99.90;;;;;;4941200;28;94558;-74
2023/02/09 03:30:56;;;;;;;10.73;6.43;;;1.00;99.90;;;;;;4943269;28;93291;-74
2023/02/09 03:33:29;;;;;;;9.55;6.45;;;1.00;99.90;;;;;;4942608;28;92511;-74
2023/02/09 03:35:58;;;;;;;9.32;5.75;;;1.00;99.90;;;;;;4925489;28;92460;-74
2023/02/09 03:38:26;;;;;;;10.60;6.10;;;1.00;99.90;;;;;;4940893;28;95481;-74
2023/02/09 03:40:54;;;;;;;9.70;6.10;;;1.00;99.90;;;;;;4941570;28;95515;-74
2023/02/09 03:44:25;;;;;;;9.32;6.13;;;1.00;99.90;;;;;;4925406;28;92389;-75
2023/02/09 03:46:08;;;;;;;11.63;6.28;;;1.00;99.90;;;;;;4927541;28;92516;-75
2023/02/09 03:48:35;;;;;;;11.65;6.22;;;1.00;99.90;;;;;;4941259;28;96348;-75
2023/02/09 03:51:03;;;;;;;9.80;6.50;;;1.00;99.90;;;;;;4940984;28;96022;-75
2023/02/09 03:53:35;;;;;;;10.02;5.80;;;0.90;99.90;;;;;;4941148;28;92511;-75
2023/02/09 03:56:03;;;;;;;8.93;5.60;;;0.90;99.90;;;;;;4941850;28;91743;-75
2023/02/09 03:58:34;;;;;;;9.50;6.80;;;0.90;99.90;;;;;;4940676;28;97258;-75
2023/02/09 04:01:07;;;;;;;10.07;6.80;;;0.90;99.90;;;;;;4941077;28;92879;-75
2023/02/09 04:03:36;;;;;;;11.05;6.22;;;0.90;99.90;;;;;;4940343;28;95018;-74
2023/02/09 04:06:03;;;;;;;11.20;6.40;;;0.90;99.90;;;;;;4942064;28;92448;-75
2023/02/09 04:08:32;;;;;;;10.80;6.55;;;0.90;99.90;;;;;;4941719;28;105818;-74
2023/02/09 04:10:59;;;;;;;11.70;6.47;;;0.90;99.90;;;;;;4940559;28;95833;-75
2023/02/09 04:13:27;;;;;;;9.98;7.00;;;0.90;99.90;;;;;;4942268;28;92940;-74
2023/02/09 04:15:54;;;;;;;9.20;6.45;;;0.90;99.90;;;;;;4941218;28;92818;-74
2023/02/09 04:18:21;;;;;;;11.73;7.00;;;0.90;99.90;;;;;;4940525;28;96117;-74
2023/02/09 04:20:48;;;;;;;12.43;7.40;;;0.90;99.90;;;;;;4941191;28;92817;-74
2023/02/09 04:23:15;;;;;;;9.45;5.60;;;0.90;99.90;;;;;;4941160;28;92544;-74
2023/02/09 04:25:42;;;;;;;10.07;6.40;;;0.90;99.90;;;;;;4938346;28;93023;-75
2023/02/09 04:28:09;;;;;;;10.25;6.25;;;0.90;99.90;;;;;;4937652;28;95739;-75
2023/02/09 04:30:36;;;;;;;11.20;6.82;;;0.90;99.90;;;;;;4937374;28;98197;-74
2023/02/09 04:33:03;;;;;;;11.10;6.43;;;0.90;99.90;;;;;;4937889;28;92513;-75
2023/02/09 04:35:30;;;;;;;9.10;6.47;;;0.80;99.90;;;;;;4937741;28;93394;-74
2023/02/09 04:37:57;;;;;;;11.75;6.90;;;0.80;99.90;;;;;;4937452;28;93331;-74
2023/02/09 04:40:24;;;;;;;11.60;6.90;;;0.90;99.90;;;;;;4937279;28;94314;-74
2023/02/09 04:42:51;;;;;;;8.73;6.28;;;0.90;99.90;;;;;;4937564;28;92403;-74
2023/02/09 04:45:18;;;;;;;11.32;6.78;;;0.90;99.90;;;;;;4939152;28;92305;-74
2023/02/09 04:47:45;;;;;;;12.02;6.88;;;0.90;99.90;;;;;;4937160;28;95826;-74
2023/02/09 04:50:13;;;;;;;10.27;6.47;;;0.90;99.90;;;;;;4938296;28;92936;-74
2023/02/09 04:52:40;;;;;;;11.65;6.50;;;0.90;99.90;;;;;;4920072;28;95473;-74
2023/02/09 04:55:07;;;;;;;11.57;6.82;;;0.90;99.90;;;;;;4937470;28;93383;-74
2023/02/09 05:00:20;;;;;;;9.23;6.38;;;0.90;99.90;;;;;;4936756;28;95636;-74
2023/02/09 05:02:47;;;;;;;12.43;6.47;;;0.80;99.90;;;;;;4921286;28;93336;-74
2023/02/09 05:05:14;;;;;;;11.05;7.38;;;0.80;99.90;;;;;;4920599;28;93213;-74
2023/02/09 05:07:41;;;;;;;8.18;6.72;;;0.80;99.90;;;;;;4937192;28;93340;-74
2023/02/09 05:10:08;;;;;;;10.13;6.63;;;0.80;99.90;;;;;;4938714;28;93020;-74
2023/02/09 05:12:35;;;;;;;9.77;6.70;;;0.80;99.90;;;;;;4936890;28;92528;-74
2023/02/09 05:15:02;;;;;;;9.98;6.75;;;0.80;99.90;;;;;;4938517;28;93002;-75
2023/02/09 05:17:31;;;;;;;11.45;7.00;;;0.80;99.90;;;;;;4935543;28;95760;-75
2023/02/09 05:19:58;;;;;;;11.10;6.90;;;0.80;99.90;;;;;;4936714;28;96288;-74
2023/02/09 05:22:26;;;;;;;10.90;6.57;;;0.80;99.90;;;;;;4920615;28;92646;-74
2023/02/09 05:24:52;;;;;;;9.05;5.82;;;0.80;99.90;;;;;;4920909;28;92511;-74
2023/02/09 05:27:19;;;;;;;13.13;7.20;;;0.70;99.90;;;;;;4937942;28;93467;-75
2023/02/09 05:29:46;;;;;;;10.52;7.22;;;0.70;99.90;;;;;;4936894;28;93386;-74
2023/02/09 05:32:13;;;;;;;10.55;6.63;;;0.70;99.90;;;;;;4938212;28;92607;-74
2023/02/09 05:34:40;;;;;;;10.77;6.63;;;0.70;99.90;;;;;;4938182;28;91715;-74
2023/02/09 05:37:07;;;;;;;12.45;6.90;;;0.70;99.90;;;;;;4937781;28;93364;-74
2023/02/09 05:39:34;;;;;;;9.88;6.20;;;0.70;99.90;;;;;;4937650;28;93187;-75
2023/02/09 05:42:16;;;;;;;9.63;6.65;;;0.70;99.90;;;;;;4935728;28;94820;-74
2023/02/09 05:44:49;;;;;;;13.35;6.85;;;0.70;99.90;;;;;;4922749;28;92450;-74
2023/02/09 05:47:20;;;;;;;11.38;6.90;;;0.70;99.90;;;;;;4920265;28;95868;-75
2023/02/09 05:49:47;;;;;;;11.00;7.07;;;0.70;99.90;;;;;;4936291;28;95590;-74
2023/02/09 05:52:15;;;;;;;10.85;7.25;;;0.60;99.90;;;;;;4936477;28;92730;-74
2023/02/09 05:54:43;;;;;;;10.95;7.30;;;0.60;99.90;;;;;;4937555;28;92504;-74
2023/02/09 05:57:10;;;;;;;12.23;7.43;;;0.60;99.90;;;;;;4937475;28;93209;-74
2023/02/09 05:59:37;;;;;;;10.20;7.28;;;0.60;99.90;;;;;;4920259;28;93013;-74
2023/02/09 06:02:05;;;;;;;10.63;7.50;;;0.60;99.90;;;;;;4936405;28;92476;-75
2023/02/09 06:04:32;;;;;;;10.00;7.03;;;0.60;99.90;;;;;;4919568;28;92513;-74
2023/02/09 06:06:59;;;;;;;11.45;7.40;;;0.60;99.90;;;;;;4936218;28;95598;-74
2023/02/09 06:09:26;;;;;;;12.60;8.57;;;0.60;99.90;;;;;;4952089;28;95528;-74
2023/02/09 06:11:53;;;;;;;10.88;6.90;;;0.60;99.90;;;;;;4919922;28;92369;-74
2023/02/09 06:14:20;;;;;;;9.55;7.10;;;0.60;99.90;;;;;;4936198;28;92572;-74
2023/02/09 06:16:47;;;;;;;10.48;7.32;;;0.60;99.90;;;;;;4937043;28;93342;-74
2023/02/09 06:19:17;;;;;;;12.80;7.85;;;0.50;99.90;;;;;;4937303;28;93024;-74
2023/02/09 06:21:45;;;;;;;12.90;7.53;;;0.50;99.90;;;;;;4937036;28;92550;-74
2023/02/09 06:24:13;;;;;;;10.85;7.03;;;0.50;99.90;;;;;;4937721;28;91706;-74
2023/02/09 06:26:41;;;;;;;11.07;7.55;;;0.50;99.90;;;;;;4951819;28;92740;-75
2023/02/09 06:29:08;;;;;;;10.80;7.40;;;0.50;99.90;;;;;;4937106;28;92985;-74
2023/02/09 06:31:36;;;;;;;9.00;6.88;;;0.40;99.90;;;;;;4918446;28;95130;-74
2023/02/09 06:34:04;;;;;;;11.82;7.53;;;0.40;99.90;;;;;;4935594;28;92594;-74
2023/02/09 06:36:32;;;;;;;10.95;8.10;;;0.40;99.90;;;;;;4935501;28;94595;-74
2023/02/09 06:38:59;;;;;;;9.10;6.60;;;0.40;99.90;;;;;;4919517;28;94893;-75
2023/02/09 06:41:26;;;;;;;11.80;6.93;;;0.40;99.90;;;;;;4935746;28;92457;-74
2023/02/09 06:43:53;;;;;;;10.70;7.47;;;0.40;99.90;;;;;;4919617;28;92504;-75
2023/02/09 06:46:20;;;;;;;11.75;7.47;;;0.40;99.90;;;;;;4919022;28;95678;-75
2023/02/09 06:48:47;;;;;;;11.43;7.18;;;0.40;99.90;;;;;;4936367;28;93047;-75
2023/02/09 06:51:16;;;;;;;11.23;7.53;;;0.40;99.90;;;;;;4919317;28;95057;-75
2023/02/09 06:53:46;;;;;;;13.43;8.07;;;0.40;99.90;;;;;;4936555;28;92379;-75
2023/02/09 06:56:13;;;;;;;14.98;7.75;;;0.40;99.90;;;;;;4934038;28;98283;-75
2023/02/09 06:58:40;;;;;;;12.25;7.13;;;0.40;99.90;;;;;;4919085;28;98114;-75
2023/02/09 07:01:10;;;;;;;11.07;6.90;;;0.40;99.90;;;;;;4936750;28;92423;-75
2023/02/09 07:03:38;;;;;;;13.43;7.82;;;0.40;99.90;;;;;;4935450;28;92440;-75
2023/02/09 07:06:09;;;;;;;11.50;7.80;;;0.40;99.90;;;;;;4934833;28;93303;-75
2023/02/09 07:08:36;;;;;;;10.68;7.15;;;0.40;99.90;;;;;;4935302;28;92907;-75
2023/02/09 07:11:06;;;;;;;9.75;7.35;;;0.40;99.90;;;;;;4936689;28;92379;-75
2023/02/09 07:13:34;;;;;;;9.88;6.85;;;0.40;99.90;;;;;;4936740;28;92255;-75
2023/02/09 07:16:03;;;;;;;12.57;7.75;;;0.40;99.90;;;;;;4919079;28;95557;-75
2023/02/09 07:18:30;;;;;;;10.45;7.50;;;0.40;99.90;;;;;;4935161;28;93080;-75
2023/02/09 07:21:01;;;;;;;12.05;7.13;;;0.40;99.90;;;;;;4935563;28;95127;-74
2023/02/09 07:23:28;;;;;;;10.68;7.18;;;0.40;99.90;;;;;;4935449;28;92937;-75
2023/02/09 07:25:55;;;;;;;12.77;6.85;;;0.50;99.90;;;;;;4934784;28;95718;-75
2023/02/09 07:28:22;;;;;;;16.85;7.30;;;0.50;99.90;;;;;;4918833;28;94005;-75
2023/02/09 07:30:51;;;;;;;11.68;7.75;;;0.50;99.90;;;;;;4936260;28;92536;-75
2023/02/09 07:33:19;;;;;;;10.90;6.57;;;0.50;99.90;;;;;;4934905;28;92603;-75
2023/02/09 07:35:47;;;;;;;9.23;6.50;;;0.60;99.90;;;;;;4934690;28;93333;-76
2023/02/09 07:38:14;;;;;;;10.60;6.93;;;0.60;99.90;;;;;;4936683;28;93039;-75
2023/02/09 07:40:45;;;;;;;11.02;7.55;;;0.70;99.90;;;;;;4918512;28;92411;-76
2023/02/09 07:43:13;;;;;;;12.05;7.57;;;0.80;99.90;;;;;;4936473;28;92449;-76
2023/02/09 07:45:40;;;;;;;9.52;7.20;;;0.80;99.90;;;;;;4932517;28;98376;-76
2023/02/09 07:48:10;;;;;;;8.57;6.35;;;0.90;99.90;;;;;;4934636;28;97871;-75
2023/02/09 07:50:37;;;;;;;10.45;7.45;;;1.00;99.90;;;;;;4934545;28;92603;-76
2023/02/09 07:53:04;;;;;;;10.80;7.18;;;1.10;99.90;;;;;;4934738;28;92615;-76
2023/02/09 07:55:31;;;;;;;8.30;6.80;;;1.20;99.90;;;;;;4935950;28;93254;-76
2023/02/09 07:57:59;;;;;;;11.50;6.95;;;1.20;99.90;;;;;;4935898;28;92977;-76
2023/02/09 08:00:26;;;;;;;8.93;6.25;;;1.30;99.90;;;;;;4920273;28;99901;-75
2023/02/09 08:02:54;;;;;;;8.07;5.35;;;1.40;99.90;;;;;;4938239;28;91750;-76
2023/02/09 08:05:40;;;;;;;8.02;5.95;;;1.50;99.90;;;;;;4937888;28;93176;-76
2023/02/09 08:08:07;;;;;;;10.18;6.07;;;1.50;99.90;;;;;;4939504;28;93086;-76
2023/02/09 08:10:35;;;;;;;10.00;7.35;;;1.60;99.90;;;;;;4936841;28;94881;-76
2023/02/09 08:13:02;;;;;;;12.23;7.50;;;1.70;99.90;;;;;;4937695;28;92516;-75
2023/02/09 08:15:41;;;;;;;17.77;10.13;;;1.80;99.90;;;;;;4939433;28;93615;-76
2023/02/09 08:18:16;;;;;;;17.90;12.13;;;1.90;99.90;;;;;;4938754;28;93216;-76
2023/02/09 08:20:44;;;;;;;13.98;9.45;;;2.10;99.90;;;;;;4938403;28;92494;-76
2023/02/09 08:23:17;;;;;;;12.18;8.57;;;2.20;99.90;;;;;;4938018;28;93225;-76
2023/02/09 08:25:46;;;;;;;11.70;9.00;;;2.30;99.90;;;;;;4938807;28;93432;-76
2023/02/09 08:28:14;;;;;;;10.73;7.32;;;2.30;99.90;;;;;;4938059;28;92998;-76
2023/02/09 08:30:41;;;;;;;12.60;8.50;;;2.40;99.90;;;;;;4937552;28;92506;-76
2023/02/09 08:33:08;;;;;;;11.60;7.95;;;2.50;99.90;;;;;;4938862;28;92485;-76
2023/02/09 08:35:35;;;;;;;12.63;9.45;;;2.60;99.90;;;;;;4920436;28;96056;-76
2023/02/09 08:38:03;;;;;;;16.10;10.38;;;2.60;99.90;;;;;;4938442;28;95541;-76
2023/02/09 08:40:31;;;;;;;11.00;8.35;;;2.70;99.90;;;;;;4937172;28;92517;-76
2023/02/09 08:42:58;;;;;;;9.93;7.05;;;2.80;99.90;;;;;;4937481;28;92534;-76
2023/02/09 08:45:25;;;;;;;8.82;6.95;;;2.90;99.90;;;;;;4937206;28;95415;-76
2023/02/09 08:47:52;;;;;;;10.60;7.28;;;3.00;99.90;;;;;;4938287;28;93300;-78
2023/02/09 08:50:19;;;;;;;11.60;7.53;;;3.10;99.90;;;;;;4937656;28;92475;-75
2023/02/09 08:52:46;;;;;;;13.27;7.20;;;3.20;99.90;;;;;;4937609;28;92327;-76
2023/02/09 08:55:13;;;;;;;11.50;7.30;;;3.20;99.90;;;;;;4937015;28;95950;-76
2023/02/09 08:57:40;;;;;;;11.13;6.90;;;3.30;99.90;;;;;;4937024;28;96058;-75
2023/02/09 09:00:11;;;;;;;10.43;7.22;;;3.40;99.90;;;;;;4936183;28;94856;-75
2023/02/09 09:02:38;;;;;;;7.72;6.03;;;3.50;99.90;;;;;;4938397;28;92331;-76
2023/02/09 09:05:06;;;;;;;10.10;7.18;;;3.60;99.80;;;;;;4935204;28;104216;-76
2023/02/09 09:07:34;;;;;;;10.52;6.70;;;3.60;99.60;;;;;;4920947;28;94293;-76
2023/02/09 09:10:01;;;;;;;9.23;6.80;;;3.70;99.40;;;;;;4937753;28;93471;-76
2023/02/09 09:12:29;;;;;;;11.27;7.05;;;3.80;99.40;;;;;;4938294;28;92396;-76
2023/02/09 09:14:56;;;;;;;12.60;7.07;;;3.80;99.10;;;;;;4937960;28;93207;-76
2023/02/09 09:17:23;;;;;;;12.55;7.68;;;3.90;99.00;;;;;;4938456;28;93009;-76
2023/02/09 09:19:54;;;;;;;10.85;7.45;;;4.00;98.80;;;;;;4936849;28;92487;-76
2023/02/09 09:22:22;;;;;;;11.13;8.13;;;4.00;98.60;;;;;;4938364;28;93002;-76
2023/02/09 09:24:49;;;;;;;11.63;7.93;;;4.10;98.70;;;;;;4935188;28;95739;-76
2023/02/09 09:27:17;;;;;;;10.18;7.75;;;4.10;98.60;;;;;;4936447;28;95644;-75
2023/02/09 09:29:44;;;;;;;13.18;7.78;;;4.20;98.80;;;;;;4938241;28;92404;-76
2023/02/09 09:32:14;;;;;;;11.23;7.93;;;4.20;98.30;;;;;;4937531;28;92581;-75
2023/02/09 09:34:42;;;;;;;10.43;7.10;;;4.20;97.90;;;;;;4937961;28;93349;-75
2023/02/09 09:37:09;;;;;;;9.48;7.13;;;4.30;98.50;;;;;;4937531;28;96943;-76
2023/02/09 09:39:36;;;;;;;11.45;7.70;;;4.40;98.40;;;;;;4937228;28;92468;-76
2023/02/09 09:42:04;;;;;;;12.30;8.25;;;4.50;98.00;;;;;;4936568;28;91826;-76
2023/02/09 09:44:42;;;;;;;12.65;8.57;;;4.50;98.00;;;;;;4936512;28;92398;-75
2023/02/09 09:47:18;;;;;;;11.65;7.22;;;4.60;98.30;;;;;;4937666;28;93727;-76
2023/02/09 09:49:46;;;;;;;12.05;8.30;;;4.70;98.20;;;;;;4951724;28;94791;-75
2023/02/09 09:52:28;;;;;;;9.18;7.13;;;4.70;98.10;;;;;;4936357;28;92533;-75
2023/02/09 09:54:57;;;;;;;11.50;7.75;;;4.80;98.30;;;;;;4936259;28;93100;-75
2023/02/09 09:57:30;;;;;;;10.10;7.50;;;4.90;98.40;;;;;;4937531;28;92998;-79
2023/02/09 10:00:00;;;;;;;10.52;7.80;;;5.00;98.30;;;;;;4937767;28;92899;-79
2023/02/09 10:02:32;;;;;;;10.77;7.53;;;5.10;98.20;;;;;;4936422;28;92360;-78
2023/02/09 10:05:17;;;;;;;10.70;7.25;;;5.20;97.90;;;;;;4936304;28;93383;-79
2023/02/09 10:08:00;;;;;;;11.00;7.93;;;5.30;97.70;;;;;;4937686;28;92949;-79
2023/02/09 10:10:35;;;;;;;11.88;8.27;;;5.40;97.60;;;;;;4937635;28;92462;-79
2023/02/09 10:13:12;;;;;;;12.20;8.65;;;5.50;97.40;;;;;;4935796;28;92572;-79
2023/02/09 10:15:39;;;;;;;9.65;7.53;;;5.60;97.30;;;;;;4936214;28;95759;-79
2023/02/09 10:18:15;;;;;;;10.93;8.20;;;5.70;97.10;;;;;;4936694;28;94402;-79
2023/02/09 10:20:55;;;;;;;10.52;7.93;;;5.80;96.90;;;;;;4936547;28;92597;-79
2023/02/09 10:23:36;;;;;;;13.23;8.32;;;5.90;97.10;;;;;;4936212;28;92560;-79
2023/02/09 10:26:25;;;;;;;14.00;8.32;;;6.00;97.10;;;;;;4937164;28;93157;-79
2023/02/09 10:28:57;;;;;;;11.73;8.30;;;6.10;97.00;;;;;;4937422;28;93051;-79
2023/02/09 10:31:27;;;;;;;11.88;7.72;;;6.10;96.80;;;;;;4937479;28;92455;-78
2023/02/09 10:33:56;;;;;;;11.02;7.95;;;6.20;97.20;;;;;;4937623;28;91661;-79
2023/02/09 10:36:34;;;;;;;14.07;8.55;;;6.30;96.60;;;;;;4937160;28;93406;-78
2023/02/09 10:39:10;;;;;;;12.48;8.60;;;6.40;96.40;;;;;;4936816;28;93076;-78
2023/02/09 10:41:40;;;;;;;9.57;7.70;;;6.50;96.40;;;;;;4935050;28;94925;-78
2023/02/09 10:44:22;;;;;;;10.55;7.97;;;6.60;96.40;;;;;;4935786;28;92474;-79
2023/02/09 10:47:07;;;;;;;13.20;9.23;;;6.60;96.50;;;;;;4937066;28;93268;-79
2023/02/09 10:49:38;;;;;;;12.60;8.30;;;6.70;96.30;;;;;;4936946;28;93123;-78
2023/02/09 10:52:18;;;;;;;11.48;8.38;;;6.70;96.20;;;;;;4936001;28;92422;-78
2023/02/09 10:54:48;;;;;;;11.00;8.85;;;6.80;96.00;;;;;;4919573;28;92498;-78
2023/02/09 10:57:37;;;;;;;9.52;7.68;;;6.80;96.10;;;;;;4935551;28;93440;-79
2023/02/09 11:00:15;;;;;;;11.55;8.25;;;6.90;95.70;;;;;;4937241;28;93035;-79
2023/02/09 11:02:51;;;;;;;13.85;9.02;;;6.90;95.80;;;;;;4937357;28;92388;-79
2023/02/09 11:05:21;;;;;;;10.90;8.23;;;6.90;96.00;;;;;;4936072;28;92437;-79
2023/02/09 11:07:55;;;;;;;13.70;9.07;;;7.00;96.20;;;;;;4935949;28;96042;-79
2023/02/09 11:10:22;;;;;;;;;;;7.00;95.80;;;;;;4937061;28;95277;-78
2023/02/09 11:12:49;;;;;;;11.23;9.20;;;7.00;95.90;;;;;;4936347;28;100419;-79
2023/02/09 11:15:25;;;;;;;14.20;9.20;;;6.90;96.10;;;;;;4919597;28;92577;-78
2023/02/09 11:17:59;;;;;;;14.40;8.63;;;7.00;96.00;;;;;;4935478;28;92485;-79
2023/02/09 11:20:34;;;;;;;12.10;8.55;;;7.00;95.80;;;;;;4934933;28;96082;-79
2023/02/09 11:23:34;;;;;;;12.50;9.05;;;7.00;96.00;;;;;;4936947;28;92420;-79
2023/02/09 11:26:41;;;;;;;11.60;9.07;;;7.10;96.00;;;;;;4936996;28;91622;-79
2023/02/09 11:29:29;;;;;;;13.68;9.23;;;7.20;96.20;;;;;;4935121;28;93190;-79
2023/02/09 11:32:13;;;;;;;11.77;9.00;;;7.20;96.40;;;;;;4936671;28;92999;-79
2023/02/09 11:35:03;;;;;;;14.32;9.65;;;7.30;96.30;;;;;;4936945;28;94987;-79
2023/02/09 11:37:53;;;;;;;13.25;9.57;;;7.40;96.10;;;;;;4939786;28;92328;-79
2023/02/09 11:40:39;;;;;;;15.32;9.90;;;7.40;96.30;;;;;;4937348;28;106027;-79
2023/02/09 11:43:20;;;;;;;12.00;9.23;;;7.60;96.30;;;;;;4922436;28;95848;-79
2023/02/09 11:45:55;;;;;;;13.00;9.50;;;7.60;96.20;;;;;;4938537;28;92427;-78
2023/02/09 11:48:31;;;;;;;13.70;9.35;;;7.70;96.20;;;;;;4938310;28;92509;-78
2023/02/09 11:50:58;;;;;;;16.33;9.75;;;7.70;96.10;;;;;;4939910;28;93283;-79
2023/02/09 11:53:40;;;;;;;12.32;9.93;;;7.60;96.00;;;;;;4939601;28;91898;-79
2023/02/09 11:56:11;;;;;;;12.65;9.13;;;7.50;96.10;;;;;;4939964;28;92481;-79
2023/02/09 11:58:56;;;;;;;13.98;9.88;;;7.50;96.20;;;;;;4922583;28;92500;-79
2023/02/09 12:01:42;;;;;;;16.23;10.20;;;7.40;96.30;;;;;;4938241;28;95747;-79
2023/02/09 12:04:09;;;;;;;15.85;10.75;;;7.40;96.40;;;;;;4939009;28;95547;-79
2023/02/09 12:06:58;;;;;;;15.32;10.68;;;7.40;96.40;;;;;;4939018;28;92465;-79
2023/02/09 12:09:40;;;;;;;14.13;10.20;;;7.50;96.60;;;;;;4939120;28;92513;-79
2023/02/09 12:12:26;;;;;;;13.52;10.38;;;7.50;96.60;;;;;;4939008;28;93357;-78
2023/02/09 12:15:15;;;;;;;13.07;10.07;;;7.60;96.50;;;;;;4937288;28;95654;-78
2023/02/09 12:18:20;;;;;;;14.68;10.10;;;7.60;96.70;;;;;;4939202;28;92508;-79
2023/02/09 12:20:55;;;;;;;13.85;9.68;;;7.60;97.20;;;;;;4898351;28;91811;-78
2023/02/09 12:23:40;;;;;;;13.88;11.20;;;7.60;97.40;;;;;;4934150;28;93241;-79
2023/02/09 12:26:16;;;;;;;13.35;10.63;;;7.70;97.40;;;;;;4937599;28;93019;-79
2023/02/09 12:29:21;;;;;;;11.93;10.25;;;7.60;97.50;;;;;;4936226;28;94893;-79
2023/02/09 12:32:03;;;;;;;12.63;9.80;;;7.60;97.70;;;;;;4937839;28;92563;-79
2023/02/09 12:34:45;;;;;;;14.23;10.25;;;7.60;97.70;;;;;;4938896;28;93011;-79
2023/02/09 12:37:12;;;;;;;16.23;10.38;;;7.60;97.70;;;;;;4937361;28;93028;-79
2023/02/09 12:40:10;;;;;;;13.18;10.50;;;7.50;97.90;;;;;;4938104;28;92469;-79
2023/02/09 12:42:45;;;;;;;17.15;11.38;;;7.60;97.60;;;;;;4938127;28;92465;-78
2023/02/09 12:45:30;;;;;;;15.13;11.07;;;7.60;97.50;;;;;;4937549;28;93183;-79
2023/02/09 12:48:08;;;;;;;19.35;11.60;;;7.50;97.40;;;;;;4937058;28;95761;-79
2023/02/09 12:50:48;;;;;;;16.08;10.65;;;7.50;97.60;;;;;;4938050;28;92389;-79
2023/02/09 12:53:21;;;;;;;15.95;11.60;;;7.40;97.70;;;;;;4948480;28;92502;-79
2023/02/09 12:56:20;;;;;;;15.63;10.98;;;7.40;98.20;;;;;;4935350;28;98763;-79
2023/02/09 12:59:22;;;;;;;16.33;11.75;;;7.40;98.30;;;;;;4917171;28;96105;-79
2023/02/09 13:02:04;;;;;;;15.48;11.23;;;7.40;98.40;;;;;;4937028;28;93029;-79
2023/02/09 13:04:43;;;;;;;16.02;11.00;;;7.40;98.70;;;;;;4936753;28;92440;-78
2023/02/09 13:07:21;;;;;;;16.95;11.82;;;7.40;98.70;;;;;;4937566;28;95723;-79
2023/02/09 13:09:50;;;;;;;15.00;11.77;;;7.40;98.40;;;;;;4936994;28;93133;-79
2023/02/09 13:12:28;;;;;;;17.55;11.80;;;7.50;98.40;;;;;;4937887;28;92923;-79
2023/02/09 13:14:55;;;;;;;14.82;11.68;;;7.60;98.30;;;;;;4936947;28;91887;-79
2023/02/09 13:17:38;;;;;;;13.90;10.77;;;7.60;98.30;;;;;;4936436;28;93571;-79
2023/02/09 13:20:30;;;;;;;16.35;11.48;;;7.70;98.30;;;;;;4937145;28;93090;-79